Time;durP1;ratioP1;P1;durP2;ratioP2;P2;SDS_P1;SDS_P2;PMS_P1;PMS_P2;Temp;Humidity;BMP_temperature;BMP_pressure;BME280_temperature;BME280_humidity;BME280_pressure;Samples;Min_cycle;Max_cycle;Signal;HPM_P1;HPM_P2
2021/12/05 00:23:11;;;;;;;5.40;4.18;;;;;;;4.42;100.00;95958.56;5031344;28;20103;-78
2021/12/05 00:25:37;;;;;;;5.82;3.75;;;;;;;4.43;100.00;95968.19;5014396;28;20446;-78
2021/12/05 01:15:49;;;;;;;6.35;4.85;;;;;;;4.35;100.00;96036.72;5031060;28;20085;-78
2021/12/05 01:18:17;;;;;;;6.53;5.00;;;;;;;4.39;100.00;96040.34;5013727;28;20123;-79
2021/12/05 01:20:53;;;;;;;6.07;4.20;;;;;;;4.35;100.00;96035.94;5013467;28;20465;-78
2021/12/05 01:31:12;;;;;;;6.28;4.88;;;;;;;4.28;100.00;96041.75;5031685;28;20049;-80
2021/12/05 01:33:54;;;;;;;6.13;5.00;;;;;;;4.36;100.00;96040.97;5034548;28;20049;-80
2021/12/05 01:42:10;;;;;;;7.03;4.95;;;;;;;4.24;100.00;96067.59;5043542;28;20099;-77
2021/12/05 01:53:50;;;;;;;6.68;4.47;;;;;;;4.32;100.00;96087.44;5035992;28;20054;-79
2021/12/05 01:56:18;;;;;;;6.15;4.57;;;;;;;4.33;100.00;96100.53;5035450;28;20456;-79
2021/12/05 02:10:40;;;;;;;6.38;3.70;;;;;;;4.29;100.00;96123.69;5032222;28;20088;-78
2021/12/05 02:34:55;;;;;;;;;;;;;;;;;;;;;
2021/12/05 02:42:25;;;;;;;5.78;3.55;;;;;;;4.32;100.00;96146.38;5050256;28;20098;-78
2021/12/05 02:44:55;;;;;;;5.30;3.70;;;;;;;4.34;100.00;96138.81;5051512;28;20045;-79
2021/12/05 02:47:26;;;;;;;7.13;3.75;;;;;;;4.29;100.00;96147.78;5034004;28;20052;-79
2021/12/05 02:49:57;;;;;;;6.05;3.80;;;;;;;4.29;100.00;96149.66;5051992;28;20056;-79
2021/12/05 02:52:30;;;;;;;5.95;3.38;;;;;;;4.29;100.00;96139.75;5051252;28;20524;-79
2021/12/05 02:55:16;;;;;;;4.60;3.50;;;;;;;4.32;100.00;96141.81;5033295;28;20072;-78
2021/12/05 02:57:53;;;;;;;5.63;3.40;;;;;;;4.29;100.00;96147.78;5033712;28;20512;-79
2021/12/05 03:03:26;;;;;;;5.95;3.45;;;;;;;4.32;100.00;96160.56;5020875;28;20452;-79
2021/12/05 03:06:02;;;;;;;5.80;3.35;;;;;;;4.33;100.00;96167.50;5051159;28;20075;-78
2021/12/05 03:08:30;;;;;;;6.95;3.72;;;;;;;4.32;100.00;96163.25;5051838;28;20400;-78
2021/12/05 03:10:59;;;;;;;9.27;3.92;;;;;;;4.31;100.00;96167.00;5051087;28;20075;-78
2021/12/05 03:13:26;;;;;;;6.30;3.42;;;;;;;4.28;100.00;96174.88;5033196;28;20049;-79
2021/12/05 03:15:55;;;;;;;7.05;3.40;;;;;;;4.28;100.00;96170.28;5050576;28;20041;-79
2021/12/05 03:18:24;;;;;;;5.50;3.20;;;;;;;4.27;100.00;96181.34;5043912;28;20072;-79
2021/12/05 03:20:54;;;;;;;7.97;3.20;;;;;;;4.27;100.00;96175.97;5030290;28;20570;-78
2021/12/05 03:23:21;;;;;;;5.60;3.10;;;;;;;4.27;100.00;96187.50;5031718;28;20057;-78
2021/12/05 03:25:48;;;;;;;6.53;3.30;;;;;;;4.29;100.00;96181.81;5030697;28;20099;-78
2021/12/05 03:28:15;;;;;;;9.55;3.00;;;;;;;4.19;100.00;96176.72;5031366;28;20053;-78
2021/12/05 03:30:42;;;;;;;9.32;3.40;;;;;;;4.29;100.00;96195.19;5030488;28;20053;-78
2021/12/05 03:33:08;;;;;;;10.07;3.60;;;;;;;4.19;100.00;96188.25;5022572;28;20076;-78
2021/12/05 03:35:36;;;;;;;5.78;3.35;;;;;;;4.16;100.00;96194.22;5013686;28;20041;-78
2021/12/05 03:38:04;;;;;;;11.50;3.97;;;;;;;4.23;100.00;96188.41;5034771;28;20304;-78
2021/12/05 03:40:33;;;;;;;9.23;3.63;;;;;;;4.20;100.00;96195.19;5034431;28;20076;-78
2021/12/05 03:43:03;;;;;;;7.93;3.20;;;;;;;4.20;100.00;96197.06;5017651;28;20089;-77
2021/12/05 03:45:37;;;;;;;9.88;3.90;;;;;;;4.19;100.00;96188.25;5023046;28;20045;-78
2021/12/05 03:48:06;;;;;;;6.40;3.63;;;;;;;4.14;100.00;96196.41;5039537;28;20057;-79
2021/12/05 03:50:48;;;;;;;5.30;2.78;;;;;;;4.12;100.00;96187.09;5042614;28;20046;-79
2021/12/05 03:53:24;;;;;;;7.32;3.13;;;;;;;4.11;100.00;96191.66;5042545;28;20041;-78
2021/12/05 03:55:53;;;;;;;9.68;3.47;;;;;;;4.05;100.00;96189.44;5046349;28;20041;-78
2021/12/05 03:58:20;;;;;;;8.25;3.00;;;;;;;4.13;100.00;96202.09;5045229;28;20072;-77
2021/12/05 04:00:50;;;;;;;8.38;3.22;;;;;;;4.05;100.00;96198.25;5028549;28;20049;-77
2021/12/05 04:03:22;;;;;;;8.88;3.53;;;;;;;4.03;100.00;96191.63;5045857;28;20107;-78
2021/12/05 04:05:50;;;;;;;12.10;3.13;;;;;;;4.05;100.00;96210.88;5050109;28;20048;-78
2021/12/05 04:08:19;;;;;;;8.60;2.90;;;;;;;4.04;100.00;96201.25;5029048;28;20049;-78
2021/12/05 04:10:54;;;;;;;10.93;3.25;;;;;;;4.03;100.00;96196.97;5027782;28;20049;-78
2021/12/05 04:13:30;;;;;;;15.63;3.33;;;;;;;4.04;100.00;96198.56;5015784;28;20076;-78
2021/12/05 04:16:01;;;;;;;7.85;2.85;;;;;;;3.96;100.00;96205.47;5026887;28;20429;-79
2021/12/05 04:18:28;;;;;;;13.60;3.45;;;;;;;3.97;100.00;96203.56;5045631;28;20049;-78
2021/12/05 04:21:00;;;;;;;7.57;3.05;;;;;;;3.95;100.00;96206.53;5043213;28;20054;-79
2021/12/05 04:23:29;;;;;;;6.90;2.72;;;;;;;3.95;100.00;96197.75;5045229;28;20049;-79
2021/12/05 04:25:56;;;;;;;6.22;2.70;;;;;;;3.94;100.00;96199.63;5027428;28;20069;-79
2021/12/05 04:28:24;;;;;;;8.55;3.05;;;;;;;3.94;100.00;96202.31;5043161;28;20053;-78
2021/12/05 04:30:52;;;;;;;9.25;3.28;;;;;;;3.93;100.00;96210.63;5024366;28;20053;-79
2021/12/05 04:33:22;;;;;;;5.68;2.80;;;;;;;3.89;100.00;96212.34;5025967;28;20050;-78
2021/12/05 04:35:53;;;;;;;8.60;3.22;;;;;;;3.84;100.00;96220.50;5025633;28;20045;-79
2021/12/05 04:38:20;;;;;;;8.82;3.10;;;;;;;3.89;100.00;96217.69;5043899;28;20057;-77
2021/12/05 04:41:02;;;;;;;11.55;3.10;;;;;;;3.89;100.00;96220.38;5042579;28;20589;-79
2021/12/05 04:43:38;;;;;;;9.40;3.15;;;;;;;3.87;100.00;96226.06;5025716;28;20075;-79
2021/12/05 04:46:28;;;;;;;;;;;;;;;3.85;100.00;96216.72;5098188;27;1235185;-84
2021/12/05 04:48:58;;;;;;;10.38;2.70;;;;;;;3.77;100.00;96226.28;5121690;28;19919;-83
2021/12/05 04:51:30;;;;;;;11.05;3.17;;;;;;;3.73;100.00;96226.13;5120703;28;20047;-83
2021/12/05 04:53:57;;;;;;;8.38;3.08;;;;;;;3.62;100.00;96222.09;5100469;28;20333;-83
2021/12/05 04:56:25;;;;;;;11.50;3.20;;;;;;;3.63;100.00;96215.66;5119231;28;20083;-83
2021/12/05 04:58:55;;;;;;;6.57;2.60;;;;;;;3.48;100.00;96202.66;5157968;22;20069;-79
2021/12/05 05:01:24;;;;;;;10.85;2.70;;;;;;;3.46;100.00;96201.38;5107448;28;20135;-79
2021/12/05 05:04:22;;;;;;;10.00;2.78;;;;;;;3.57;100.00;96211.53;5106059;28;20097;-80
2021/12/05 05:06:56;;;;;;;8.00;2.55;;;;;;;3.54;100.00;96214.81;5121453;28;20047;-79
2021/12/05 05:09:25;;;;;;;8.48;2.60;;;;;;;3.57;100.00;96214.19;5137964;28;20061;-79
2021/12/05 05:11:52;;;;;;;9.70;2.80;;;;;;;3.54;100.00;96224.69;5103480;28;20059;-80
2021/12/05 05:14:35;;;;;;;9.05;2.50;;;;;;;3.62;100.00;96232.00;5138336;28;20043;-80
2021/12/05 05:17:17;;;;;;;9.63;2.90;;;;;;;3.57;100.00;96232.13;5138694;28;20522;-82
2021/12/05 05:19:51;;;;;;;6.20;2.95;;;;;;;3.58;100.00;96231.84;5135661;28;20048;-82
2021/12/05 05:22:25;;;;;;;12.32;3.58;;;;;;;3.55;100.00;96226.28;5122046;28;20504;-83
2021/12/05 05:50:03;;;;;;;15.77;4.50;;;;;;;3.42;100.00;96270.72;5133987;28;20050;-82
2021/12/05 05:52:32;;;;;;;10.27;4.43;;;;;;;3.37;100.00;96284.22;5109104;28;20083;-80
2021/12/05 05:55:00;;;;;;;9.57;3.95;;;;;;;3.29;100.00;96274.22;5128748;28;20111;-82
2021/12/05 05:57:35;;;;;;;13.15;4.22;;;;;;;3.24;100.00;96285.03;5117560;28;20044;-80
2021/12/05 06:00:09;;;;;;;;;;;;;;;3.26;100.00;96292.75;5096255;28;20055;-81
2021/12/05 06:05:22;;;;;;;13.60;4.13;;;;;;;3.19;100.00;96295.84;5115130;28;20488;-83
2021/12/05 06:07:48;;;;;;;7.80;4.10;;;;;;;3.18;100.00;96299.59;5098173;28;20055;-80
2021/12/05 06:10:25;;;;;;;11.73;4.55;;;;;;;3.21;100.00;96295.53;5100729;28;20616;-81
2021/12/05 06:12:53;;;;;;;11.85;4.20;;;;;;;3.17;100.00;96291.91;5117201;28;20044;-79
2021/12/05 06:15:22;;;;;;;11.80;4.43;;;;;;;3.10;100.00;96297.63;5117199;28;20052;-79
2021/12/05 06:17:54;;;;;;;11.68;4.63;;;;;;;3.08;100.00;96300.63;5129998;28;20052;-81
2021/12/05 06:20:36;;;;;;;11.70;4.20;;;;;;;3.09;100.00;96304.88;5108975;28;20461;-80
2021/12/05 06:23:03;;;;;;;13.50;4.85;;;;;;;3.08;100.00;96300.63;5098593;28;20488;-83
2021/12/05 06:25:33;;;;;;;11.93;5.07;;;;;;;3.06;100.00;96304.69;5115649;28;20094;-80
2021/12/05 06:28:01;;;;;;;7.22;3.92;;;;;;;3.11;100.00;96310.72;5099938;28;20385;-81
2021/12/05 06:47:40;;;;;;;8.55;3.40;;;;;;;3.11;100.00;96323.28;5094839;28;20052;-82
2021/12/05 06:50:07;;;;;;;7.97;3.42;;;;;;;3.15;100.00;96326.94;5095666;28;20055;-78
2021/12/05 06:52:42;;;;;;;12.25;3.78;;;;;;;3.18;100.00;96331.69;5094377;28;20048;-81
2021/12/05 06:55:09;;;;;;;10.10;4.05;;;;;;;3.06;100.00;96328.75;5093280;28;20454;-79
2021/12/05 06:57:39;;;;;;;7.72;3.97;;;;;;;3.10;100.00;96337.72;5094596;28;20052;-79
2021/12/05 07:00:14;;;;;;;11.60;3.88;;;;;;;3.13;100.00;96353.97;5093347;28;20043;-78
2021/12/05 07:02:40;;;;;;;11.85;3.90;;;;;;;3.14;100.00;96350.22;5094217;28;20093;-80
2021/12/05 07:07:52;;;;;;;16.13;4.00;;;;;;;3.10;100.00;96362.59;5094921;28;20048;-79
2021/12/05 07:10:20;;;;;;;8.07;3.50;;;;;;;2.99;100.00;96376.47;5094246;28;20084;-82
2021/12/05 07:23:47;;;;;;;9.70;3.20;;;;;;;3.16;100.00;96398.03;5083464;28;20097;-81
2021/12/05 07:26:21;;;;;;;7.35;3.22;;;;;;;3.24;100.00;96394.69;5097513;28;20101;-82
2021/12/05 07:42:41;;;;;;;8.18;3.22;;;;;;;3.06;100.00;96423.09;5112558;28;20046;-80
2021/12/05 07:45:30;;;;;;;7.28;3.03;;;;;;;3.23;100.00;96435.84;5083182;28;20597;-80
2021/12/05 07:47:57;;;;;;;8.50;2.50;;;;;;;3.27;100.00;96430.72;5111207;28;20852;-81
2021/12/05 07:50:38;;;;;;;11.50;2.58;;;;;;;3.29;100.00;96431.22;5120187;28;20054;-79
2021/12/05 07:53:10;;;;;;;7.43;2.40;;;;;;;3.28;100.00;96429.66;5104257;28;20073;-80
2021/12/05 07:55:47;;;;;;;9.13;2.78;;;;;;;3.28;100.00;96433.09;5121113;28;20051;-81
2021/12/05 08:01:00;;;;;;;7.65;2.50;;;;;;;3.36;100.00;96410.19;5110405;28;20124;-80
2021/12/05 08:14:39;;;;;;;7.88;2.67;;;;;;;3.43;100.00;96432.78;5111405;28;20558;-80
2021/12/05 08:17:13;;;;;;;7.60;2.63;;;;;;;3.43;100.00;96424.75;5114836;28;20108;-82
2021/12/05 08:19:40;;;;;;;9.63;2.65;;;;;;;3.53;100.00;96427.25;5098537;28;20104;-81
2021/12/05 08:22:07;;;;;;;11.90;2.60;;;;;;;3.49;100.00;96420.09;5114589;28;20560;-82
2021/12/05 08:24:36;;;;;;;10.10;2.25;;;;;;;3.60;100.00;96446.34;5081684;28;20055;-82
2021/12/05 08:27:05;;;;;;;9.57;2.95;;;;;;;3.58;100.00;96456.56;5076655;28;20056;-81
2021/12/05 08:29:44;;;;;;;8.82;2.70;;;;;;;3.56;100.00;96453.38;5110455;28;20055;-84
2021/12/05 08:40:33;;;;;;;10.02;2.40;;;;;;;3.65;100.00;96459.63;5114217;28;20051;-82
2021/12/05 09:38:34;;;;;;;7.20;2.38;;;;;;;4.49;100.00;96504.66;5111012;28;20078;-82
2021/12/05 09:40:10;;;;;;;8.52;2.30;;;;;;;4.44;100.00;96518.94;5091765;28;20690;-81
2021/12/05 10:40:36;;;;;;;9.20;2.72;;;;;;;5.53;100.00;96503.06;5113939;28;20043;-79
2021/12/05 10:43:18;;;;;;;11.73;3.00;;;;;;;5.81;100.00;96497.50;5119703;28;20054;-78
2021/12/05 10:46:10;;;;;;;15.93;2.83;;;;;;;5.99;100.00;96496.44;5099527;28;20046;-81
2021/12/05 10:48:42;;;;;;;10.05;2.72;;;;;;;6.05;100.00;96487.16;5118045;28;20134;-78
2021/12/05 10:51:30;;;;;;;11.57;2.70;;;;;;;6.12;100.00;96492.84;5102055;28;20071;-79
2021/12/05 10:54:03;;;;;;;11.23;2.65;;;;;;;6.19;100.00;96491.25;5092920;28;20051;-82
2021/12/05 10:56:42;;;;;;;10.05;2.90;;;;;;;6.09;100.00;96496.94;5089954;28;20040;-82
2021/12/05 10:59:17;;;;;;;8.60;2.40;;;;;;;6.22;100.00;96489.84;5102449;28;20059;-81
2021/12/05 11:01:55;;;;;;;11.27;2.85;;;;;;;6.14;100.00;96490.66;5081150;28;20047;-84
2021/12/05 11:04:29;;;;;;;10.52;2.83;;;;;;;6.13;100.00;96499.81;5081159;28;20051;-79
2021/12/05 11:07:07;;;;;;;13.05;2.40;;;;;;;5.96;100.00;96505.16;5100199;28;20039;-78
2021/12/05 11:09:36;;;;;;;9.68;2.90;;;;;;;6.19;100.00;96491.25;5088728;28;20067;-78
2021/12/05 11:12:34;;;;;;;12.07;2.60;;;;;;;6.34;100.00;96492.72;5078164;28;20052;-79
2021/12/05 11:15:13;;;;;;;8.63;2.35;;;;;;;6.22;100.00;96498.69;5060931;28;20059;-78
2021/12/05 11:17:43;;;;;;;11.98;2.67;;;;;;;6.15;100.00;96511.81;5093942;28;20051;-79
2021/12/05 11:20:28;;;;;;;9.27;2.50;;;;;;;6.46;100.00;96511.69;5091415;28;20056;-79
2021/12/05 11:22:56;;;;;;;8.30;2.35;;;;;;;6.14;100.00;96523.66;5091963;28;20082;-78
2021/12/05 11:25:27;;;;;;;8.43;2.38;;;;;;;6.27;100.00;96530.78;5091144;28;20113;-77
2021/12/05 11:27:58;;;;;;;11.43;2.38;;;;;;;7.17;100.00;96520.19;5116041;28;20049;-78
2021/12/05 11:30:33;;;;;;;12.85;2.60;;;;;;;7.70;100.00;96531.28;5094479;28;20058;-78
2021/12/05 11:33:02;;;;;;;8.57;2.25;;;;;;;7.67;100.00;96528.41;5094524;28;20112;-77
2021/12/05 11:35:29;;;;;;;6.40;2.30;;;;;;;8.57;100.00;96532.38;5112866;28;20036;-78
2021/12/05 11:37:58;;;;;;;6.28;2.17;;;;;;;7.79;100.00;96531.25;5095455;28;20043;-80
2021/12/05 11:40:28;;;;;;;9.57;2.00;;;;;;;7.13;100.00;96528.09;5095229;28;20051;-78
2021/12/05 11:43:01;;;;;;;9.73;2.50;;;;;;;6.52;100.00;96526.56;5097093;28;20051;-80
2021/12/05 11:45:48;;;;;;;9.68;2.20;;;;;;;7.20;100.00;96527.63;5084490;28;20112;-79
2021/12/05 11:48:18;;;;;;;11.40;2.38;;;;;;;8.72;100.00;96510.25;5094715;28;20051;-79
2021/12/05 11:50:46;;;;;;;11.00;2.22;;;;;;;8.78;100.00;96490.00;5095338;28;20644;-79
2021/12/05 11:53:13;;;;;;;7.13;2.28;;;;;;;8.11;100.00;96501.75;5111198;28;20051;-80
2021/12/05 11:55:43;;;;;;;12.15;2.78;;;;;;;7.19;100.00;96509.91;5092988;28;20565;-79
2021/12/05 11:58:17;;;;;;;9.88;2.08;;;;;;;6.70;100.00;96512.03;5083529;28;20051;-79
2021/12/05 12:00:46;;;;;;;7.05;2.13;;;;;;;6.57;100.00;96521.03;5110644;28;20455;-80
2021/12/05 12:03:14;;;;;;;10.10;2.20;;;;;;;6.94;100.00;96526.88;5112617;28;20048;-80
2021/12/05 12:05:41;;;;;;;12.25;2.58;;;;;;;7.74;100.00;96526.03;5094547;28;20059;-79
2021/12/05 12:08:12;;;;;;;6.95;1.92;;;;;;;8.29;100.00;96515.13;5094942;28;20159;-80
2021/12/05 12:10:45;;;;;;;7.97;1.90;;;;;;;8.92;100.00;96520.22;5110545;28;20472;-79
2021/12/05 12:13:24;;;;;;;10.25;2.45;;;;;;;8.84;100.00;96521.09;5111344;28;20047;-77
2021/12/05 12:15:59;;;;;;;8.88;1.90;;;;;;;8.28;100.00;96514.38;5091906;28;20070;-77
2021/12/05 12:18:32;;;;;;;7.63;2.08;;;;;;;7.52;100.00;96535.13;5110546;28;20108;-79
2021/12/05 12:21:06;;;;;;;7.07;1.95;;;;;;;7.33;100.00;96529.34;5095309;28;20436;-78
2021/12/05 12:23:35;;;;;;;9.70;1.95;;;;;;;7.34;100.00;96533.59;5111259;28;20059;-78
2021/12/05 12:26:05;;;;;;;9.57;2.33;;;;;;;7.36;100.00;96534.84;5108751;28;20079;-77
2021/12/05 12:28:32;;;;;;;9.50;2.55;;;;;;;7.29;100.00;96528.38;5091168;28;20058;-78
2021/12/05 12:31:02;;;;;;;7.10;1.92;;;;;;;7.12;100.00;96531.13;5091059;28;20047;-78
2021/12/05 12:33:33;;;;;;;6.72;2.53;;;;;;;6.97;100.00;96534.31;5091845;28;20055;-78
2021/12/05 12:36:01;;;;;;;11.05;2.80;;;;;;;6.87;100.00;96543.47;5100852;28;20071;-77
2021/12/05 12:38:30;;;;;;;11.88;2.30;;;;;;;6.78;100.00;96548.09;5072116;28;20072;-79
2021/12/05 12:41:01;;;;;;;9.60;1.95;;;;;;;6.85;100.00;96554.56;5071564;28;20055;-79
2021/12/05 13:45:21;;;;;;;12.88;3.80;;;;;;;4.74;100.00;96581.81;5123988;27;20390;-85
2021/12/05 13:47:51;;;;;;;9.93;3.30;;;;;;;4.58;100.00;96588.59;5110178;28;20048;-84
2021/12/05 13:50:29;;;;;;;10.95;3.58;;;;;;;4.54;100.00;96596.47;5125536;28;20099;-86
2021/12/05 13:53:06;;;;;;;14.38;4.00;;;;;;;4.49;100.00;96601.13;5129448;28;20045;-85
2021/12/05 13:55:44;;;;;;;11.70;3.92;;;;;;;4.50;100.00;96606.19;5127816;28;20137;-84
2021/12/05 13:58:19;;;;;;;19.25;3.50;;;;;;;4.55;100.00;96615.97;5128989;27;20047;-84
2021/12/05 14:01:10;;;;;;;15.25;3.17;;;;;;;4.52;100.00;96620.06;5125291;28;20096;-84
2021/12/05 14:03:49;;;;;;;11.07;3.20;;;;;;;4.57;100.00;96622.63;5125562;28;20130;-84
2021/12/05 14:06:34;;;;;;;12.68;3.10;;;;;;;4.60;100.00;96623.91;5124737;28;20116;-84
2021/12/05 14:09:29;;;;;;;14.73;3.25;;;;;;;4.62;100.00;96630.56;5128932;28;20048;-86
2021/12/05 14:12:18;;;;;;;11.75;3.40;;;;;;;4.65;100.00;96637.19;5117614;28;20070;-83
2021/12/05 14:14:54;;;;;;;10.73;3.00;;;;;;;4.74;100.00;96641.56;5132270;28;20081;-85
2021/12/05 14:17:24;;;;;;;13.18;3.15;;;;;;;4.72;100.00;96638.38;5126514;28;20100;-86
2021/12/05 14:19:57;;;;;;;9.35;2.70;;;;;;;4.66;100.00;96644.16;5124165;28;20136;-82
2021/12/05 14:22:29;;;;;;;9.07;3.13;;;;;;;4.50;100.00;96638.34;5125236;28;20043;-81
2021/12/05 14:24:58;;;;;;;8.80;2.80;;;;;;;4.72;100.00;96641.06;5123063;28;20044;-83
2021/12/05 14:27:33;;;;;;;11.38;2.67;;;;;;;4.54;100.00;96644.69;5125418;27;20077;-82
2021/12/05 14:30:01;;;;;;;13.80;3.80;;;;;;;4.38;100.00;96644.22;5134727;27;20047;-82
2021/12/05 14:32:39;;;;;;;8.90;2.80;;;;;;;4.45;100.00;96648.34;5127661;27;20051;-81
2021/12/05 14:35:10;;;;;;;10.07;2.60;;;;;;;4.14;100.00;96654.31;5127470;27;20047;-81
2021/12/05 14:37:40;;;;;;;11.77;2.95;;;;;;;4.09;100.00;96658.97;5125935;28;20100;-82
2021/12/05 14:40:14;;;;;;;17.08;4.30;;;;;;;4.06;100.00;96665.72;5127544;28;20051;-81
2021/12/05 14:42:46;;;;;;;13.25;3.05;;;;;;;4.04;100.00;96662.56;5124683;28;20051;-80
2021/12/05 14:45:19;;;;;;;13.35;3.38;;;;;;;4.05;100.00;96671.38;5127102;27;20047;-81
2021/12/05 14:47:51;;;;;;;13.88;3.30;;;;;;;3.88;100.00;96677.31;5128885;27;20055;-81
2021/12/05 14:50:30;;;;;;;15.13;3.97;;;;;;;3.88;100.00;96671.16;5125151;27;20063;-81
2021/12/05 14:53:00;;;;;;;25.65;9.02;;;;;;;3.95;100.00;96666.22;5125099;28;20491;-81
2021/12/05 14:55:28;;;;;;;34.20;14.85;;;;;;;3.89;100.00;96670.88;5119556;28;20560;-82
2021/12/05 14:57:59;;;;;;;25.50;10.80;;;;;;;3.96;100.00;96668.59;5115827;28;20048;-82
2021/12/05 15:00:44;;;;;;;26.38;8.23;;;;;;;3.91;100.00;96682.06;5112575;28;20060;-81
2021/12/05 15:03:14;;;;;;;17.95;5.88;;;;;;;3.85;100.00;96680.56;5113458;28;20059;-84
2021/12/05 15:05:45;;;;;;;13.88;4.60;;;;;;;3.82;100.00;96675.81;5113741;28;20625;-80
2021/12/05 15:08:15;;;;;;;19.05;6.10;;;;;;;3.74;100.00;96690.66;5111446;28;20067;-82
2021/12/05 15:10:44;;;;;;;19.25;5.93;;;;;;;3.67;100.00;96690.25;5105685;28;20104;-75
2021/12/05 15:13:13;;;;;;;19.02;5.53;;;;;;;3.57;100.00;96686.94;5106693;28;20438;-75
2021/12/05 15:15:39;;;;;;;17.38;4.85;;;;;;;3.51;100.00;96688.13;5115367;28;20051;-74
2021/12/05 15:18:19;;;;;;;13.63;4.97;;;;;;;3.49;100.00;96696.44;5108243;28;20082;-83
2021/12/05 15:20:50;;;;;;;14.35;5.03;;;;;;;3.28;100.00;96687.13;5111542;28;20747;-83
2021/12/05 15:24:09;;;;;;;18.83;5.05;;;;;;;3.20;100.00;96670.97;5097328;28;20132;-83
2021/12/05 15:27:38;;;;;;;16.40;4.22;;;;;;;3.10;100.00;96674.59;5092462;28;20051;-83
2021/12/05 15:30:38;;;;;;;14.57;4.63;;;;;;;3.12;100.00;96691.16;5094857;28;20087;-82
2021/12/05 15:33:20;;;;;;;20.25;6.50;;;;;;;3.10;100.00;96677.25;5095727;28;20535;-82
2021/12/05 15:36:25;;;;;;;15.05;5.78;;;;;;;3.08;100.00;96674.88;5103897;28;20051;-82
2021/12/05 15:39:30;;;;;;;13.65;5.53;;;;;;;3.17;100.00;96697.19;5118729;28;20052;-82
2021/12/05 15:42:25;;;;;;;14.55;5.32;;;;;;;3.07;100.00;96692.00;5120998;28;20675;-83
2021/12/05 15:45:11;;;;;;;14.88;4.70;;;;;;;3.01;100.00;96690.50;5114305;28;20094;-80
2021/12/05 15:47:45;;;;;;;11.77;4.57;;;;;;;2.91;100.00;96673.81;5115983;28;20150;-82
2021/12/05 15:50:19;;;;;;;15.10;4.93;;;;;;;3.05;100.00;96699.53;5113639;28;20234;-83
2021/12/05 15:53:12;;;;;;;;;;;;;;;;;;;;;
2021/12/05 15:55:58;;;;;;;15.05;4.75;;;;;;;2.88;100.00;96709.13;5112528;28;20051;-82
2021/12/05 15:58:58;;;;;;;28.73;11.93;;;;;;;2.62;100.00;96692.63;5108386;28;20419;-83
2021/12/05 16:01:43;;;;;;;19.88;8.02;;;;;;;2.59;100.00;96700.41;5090934;28;20048;-83
2021/12/05 16:04:36;;;;;;;17.83;6.85;;;;;;;2.60;100.00;96707.38;5095600;28;20115;-83
2021/12/05 16:07:20;;;;;;;14.80;4.28;;;;;;;2.42;100.00;96704.38;5112632;28;20090;-83
2021/12/05 16:10:12;;;;;;;13.23;4.40;;;;;;;2.40;100.00;96725.22;5113514;28;20418;-83
2021/12/05 16:13:05;;;;;;;18.02;4.63;;;;;;;2.55;100.00;96728.78;5111378;28;20103;-82
2021/12/05 16:16:50;;;;;;;13.02;4.00;;;;;;;2.46;100.00;96725.94;5112919;28;20509;-83
2021/12/05 16:19:35;;;;;;;10.52;3.90;;;;;;;2.32;100.00;96714.38;5114711;28;20675;-83
2021/12/05 16:22:25;;;;;;;12.23;3.70;;;;;;;2.13;100.00;96710.84;5120214;22;20040;-84
2021/12/05 16:25:23;;;;;;;13.13;4.03;;;;;;;2.43;100.00;96721.97;5083320;28;20048;-82
2021/12/05 16:28:36;;;;;;;12.70;3.63;;;;;;;2.50;100.00;96743.78;5054799;28;20104;-84
2021/12/05 16:31:39;;;;;;;15.17;4.00;;;;;;;2.45;100.00;96711.78;5059035;28;20084;-83
2021/12/05 16:34:43;;;;;;;14.00;4.53;;;;;;;2.43;100.00;96716.63;5056770;28;20304;-83
2021/12/05 16:37:15;;;;;;;11.75;3.78;;;;;;;2.68;100.00;96742.25;5078783;28;20129;-81
2021/12/05 16:39:58;;;;;;;11.35;4.85;;;;;;;2.62;100.00;96732.72;5061496;28;20078;-81
2021/12/05 16:42:44;;;;;;;19.00;5.30;;;;;;;2.66;100.00;96716.91;5078203;28;20056;-84
2021/12/05 16:45:15;;;;;;;14.10;5.30;;;;;;;2.90;100.00;96739.03;5084610;28;20045;-83
2021/12/05 16:47:56;;;;;;;12.90;5.20;;;;;;;2.84;100.00;96730.28;5062775;28;20102;-83
2021/12/05 16:50:37;;;;;;;14.80;5.30;;;;;;;2.63;100.00;96746.88;5061048;28;20051;-83
2021/12/05 16:53:32;;;;;;;14.00;4.90;;;;;;;2.69;100.00;96725.13;5061578;28;20048;-82
2021/12/05 16:56:17;;;;;;;17.90;4.75;;;;;;;2.94;100.00;96756.09;5046498;28;20087;-82
2021/12/05 16:59:44;;;;;;;12.93;4.18;;;;;;;3.00;100.00;96763.75;5061718;28;20052;-83
2021/12/05 17:02:33;;;;;;;11.45;3.60;;;;;;;2.75;100.00;96731.22;5071968;28;20047;-82
2021/12/05 17:05:18;;;;;;;12.32;3.75;;;;;;;2.79;100.00;96737.56;5081688;28;20415;-83
2021/12/05 17:08:22;;;;;;;13.02;3.17;;;;;;;2.92;100.00;96753.69;5053323;28;20515;-82
2021/12/05 17:11:15;;;;;;;15.30;3.58;;;;;;;2.98;100.00;96763.25;5057851;28;20290;-81
2021/12/05 17:13:48;;;;;;;10.88;3.20;;;;;;;2.93;100.00;96747.28;5048719;28;20139;-84
2021/12/05 17:16:28;;;;;;;12.55;3.58;;;;;;;2.91;100.00;96738.75;5085064;28;20072;-84
2021/12/05 17:19:07;;;;;;;12.02;3.58;;;;;;;2.94;100.00;96745.41;5057031;28;20046;-85
2021/12/05 17:21:49;;;;;;;12.13;2.70;;;;;;;3.03;100.00;96770.41;5071838;28;20282;-83
2021/12/05 17:24:17;;;;;;;12.98;3.05;;;;;;;2.97;100.00;96760.84;5073491;28;20139;-84
2021/12/05 17:26:51;;;;;;;10.40;3.25;;;;;;;2.95;100.00;96755.81;5056808;28;20048;-82
2021/12/05 17:29:22;;;;;;;14.02;3.50;;;;;;;2.83;100.00;96770.66;5056313;28;20056;-82
2021/12/05 17:31:58;;;;;;;11.85;3.08;;;;;;;2.84;100.00;96761.56;5056893;28;20093;-84
2021/12/05 17:34:32;;;;;;;11.63;3.47;;;;;;;2.79;100.00;96742.91;5055836;28;20486;-82
2021/12/05 17:37:06;;;;;;;10.20;2.67;;;;;;;3.02;100.00;96766.16;5056657;28;20053;-82
2021/12/05 17:39:36;;;;;;;12.23;3.00;;;;;;;3.06;100.00;96773.31;5053180;28;20347;-82
2021/12/05 17:42:09;;;;;;;10.38;3.08;;;;;;;3.08;100.00;96773.00;5050215;28;20056;-83
2021/12/05 17:44:39;;;;;;;12.33;3.30;;;;;;;2.99;100.00;96780.09;5052613;28;20087;-84
2021/12/05 17:47:10;;;;;;;13.45;3.30;;;;;;;2.91;100.00;96784.19;5060426;28;20394;-84
2021/12/05 17:49:40;;;;;;;13.82;3.72;;;;;;;2.96;100.00;96783.34;5052039;28;20108;-84
2021/12/05 17:52:09;;;;;;;10.13;3.42;;;;;;;2.94;100.00;96798.88;5049597;28;20084;-83
2021/12/05 17:54:51;;;;;;;11.43;3.80;;;;;;;2.92;100.00;96787.63;5051985;28;20480;-83
2021/12/05 17:57:30;;;;;;;14.38;4.53;;;;;;;2.92;100.00;96782.28;5053817;28;20061;-83
2021/12/05 18:00:12;;;;;;;21.75;5.85;;;;;;;2.93;100.00;96786.56;5063052;28;20052;-84
2021/12/05 18:05:22;;;;;;;20.58;5.70;;;;;;;2.98;100.00;96799.88;5053652;28;20078;-84
2021/12/05 18:07:53;;;;;;;20.98;4.75;;;;;;;3.01;100.00;96807.31;5053879;28;20484;-83
2021/12/05 18:10:25;;;;;;;14.73;3.95;;;;;;;3.00;100.00;96797.69;5052318;28;20048;-83
2021/12/05 18:12:57;;;;;;;10.07;4.25;;;;;;;2.91;100.00;96791.41;5073357;28;20058;-83
2021/12/05 18:15:54;;;;;;;15.45;3.90;;;;;;;2.98;100.00;96821.25;5057201;28;20045;-84
2021/12/05 18:18:23;;;;;;;12.10;4.22;;;;;;;2.88;100.00;96800.00;5073256;28;20048;-83
2021/12/05 18:20:50;;;;;;;15.60;3.67;;;;;;;2.93;100.00;96807.94;5073666;28;20574;-85
2021/12/05 18:23:22;;;;;;;12.48;3.47;;;;;;;3.07;100.00;96809.63;5074472;28;20056;-84
2021/12/05 18:25:50;;;;;;;11.82;3.42;;;;;;;3.11;100.00;96812.53;5073116;28;20045;-82
2021/12/05 18:28:17;;;;;;;13.20;3.45;;;;;;;3.08;100.00;96800.53;5072536;28;20064;-84
2021/12/05 18:30:44;;;;;;;16.75;3.83;;;;;;;3.01;100.00;96812.66;5073067;28;20052;-81
2021/12/05 18:33:14;;;;;;;15.55;3.88;;;;;;;3.12;100.00;96819.50;5059321;28;20396;-82
2021/12/05 18:35:41;;;;;;;13.70;3.88;;;;;;;2.99;100.00;96822.84;5059596;28;20314;-83
2021/12/05 18:38:13;;;;;;;12.27;3.63;;;;;;;2.98;100.00;96818.59;5059686;28;20411;-82
2021/12/05 18:40:45;;;;;;;18.15;3.97;;;;;;;3.08;100.00;96821.13;5059523;28;20468;-82
2021/12/05 18:43:13;;;;;;;12.77;4.13;;;;;;;3.13;100.00;96821.06;5076376;28;20532;-83
2021/12/05 18:45:42;;;;;;;13.02;3.75;;;;;;;3.12;100.00;96822.16;5059088;28;20049;-82
2021/12/05 18:48:10;;;;;;;14.63;3.95;;;;;;;3.15;100.00;96838.41;5079272;28;20052;-83
2021/12/05 18:50:39;;;;;;;15.45;4.07;;;;;;;3.10;100.00;96826.97;5076578;28;20587;-83
2021/12/05 18:53:07;;;;;;;16.92;4.63;;;;;;;2.91;100.00;96837.66;5076469;28;20060;-83
2021/12/05 18:55:34;;;;;;;15.80;4.30;;;;;;;2.90;100.00;96822.69;5076582;28;20102;-84